createdAt,value
2018-05-25T00:02:02.981Z,16.29
2018-05-25T00:04:31.116Z,16.27
2018-05-25T00:06:58.083Z,16.29
2018-05-25T00:09:25.119Z,16.19
2018-05-25T00:11:52.148Z,16.09
2018-05-25T00:14:19.127Z,16.06
2018-05-25T00:16:46.853Z,16.00
2018-05-25T00:19:13.881Z,15.88
2018-05-25T00:21:40.918Z,15.89
2018-05-25T00:24:07.990Z,15.89
2018-05-25T00:26:34.975Z,15.84
2018-05-25T00:29:02.719Z,15.75
2018-05-25T00:31:29.735Z,15.82
2018-05-25T00:33:56.749Z,15.79
2018-05-25T00:36:24.476Z,15.72
2018-05-25T00:38:51.449Z,15.65
2018-05-25T00:41:18.430Z,15.56
2018-05-25T00:43:45.400Z,15.45
2018-05-25T00:46:12.404Z,15.52
2018-05-25T00:48:39.428Z,15.52
2018-05-25T00:51:06.470Z,15.46
2018-05-25T00:53:33.430Z,15.38
2018-05-25T00:56:01.151Z,15.32
2018-05-25T00:58:28.202Z,15.23
2018-05-25T01:00:55.211Z,15.15
2018-05-25T01:03:22.223Z,15.12
2018-05-25T01:05:49.211Z,15.31
2018-05-25T01:08:16.216Z,15.34
2018-05-25T01:10:43.197Z,15.21
2018-05-25T01:13:10.199Z,15.19
2018-05-25T01:15:37.166Z,15.24
2018-05-25T01:18:04.968Z,15.51
2018-05-25T01:20:31.959Z,15.42
2018-05-25T01:22:58.971Z,15.29
2018-05-25T01:25:25.963Z,15.28
2018-05-25T01:27:52.942Z,15.24
2018-05-25T01:30:19.946Z,15.21
2018-05-25T01:32:46.951Z,15.22
2018-05-25T01:35:13.968Z,15.21
2018-05-25T01:37:40.991Z,15.22
2018-05-25T01:40:08.017Z,15.25
2018-05-25T01:42:35.051Z,15.30
2018-05-25T01:45:02.046Z,15.30
2018-05-25T01:47:29.833Z,15.26
2018-05-25T01:49:56.788Z,15.21
2018-05-25T01:52:23.741Z,15.79
2018-05-25T01:54:50.731Z,15.88
2018-05-25T01:57:17.701Z,15.97
2018-05-25T01:59:45.413Z,16.03
2018-05-25T02:02:12.404Z,15.97
2018-05-25T02:04:40.126Z,15.69
2018-05-25T02:07:07.123Z,15.48
2018-05-25T02:09:34.841Z,15.22
2018-05-25T02:12:01.853Z,14.91
2018-05-25T02:14:28.866Z,14.72
2018-05-25T02:16:56.621Z,14.52
2018-05-25T02:19:23.603Z,14.38
2018-05-25T02:21:50.587Z,14.66
2018-05-25T02:24:17.579Z,14.43
2018-05-25T02:26:45.398Z,14.33
2018-05-25T02:29:12.414Z,14.51
2018-05-25T02:31:39.372Z,14.40
2018-05-25T02:34:06.377Z,14.23
2018-05-25T02:36:33.397Z,14.51
2018-05-25T02:39:00.391Z,14.41
2018-05-25T02:41:27.384Z,14.22
2018-05-25T02:43:54.366Z,14.08
2018-05-25T02:46:22.116Z,14.01
2018-05-25T02:48:49.067Z,14.00
2018-05-25T02:51:16.807Z,13.99
2018-05-25T02:53:43.767Z,13.98
2018-05-25T02:56:10.759Z,14.04
2018-05-25T02:58:37.747Z,14.15
2018-05-25T03:01:04.719Z,14.33
2018-05-25T03:03:32.484Z,14.37
2018-05-25T03:06:00.219Z,14.34
2018-05-25T03:08:27.235Z,14.28
2018-05-25T03:10:54.256Z,14.24
2018-05-25T03:13:21.989Z,14.15
2018-05-25T03:15:48.996Z,14.19
2018-05-25T03:18:15.964Z,14.15
2018-05-25T03:20:42.934Z,14.09
2018-05-25T03:23:09.883Z,14.12
2018-05-25T03:25:36.888Z,14.17
2018-05-25T03:28:03.908Z,14.38
2018-05-25T03:30:30.993Z,14.32
2018-05-25T03:32:57.993Z,14.26
2018-05-25T03:35:25.725Z,14.49
2018-05-25T03:37:52.741Z,14.94
2018-05-25T03:40:19.738Z,14.85
2018-05-25T03:42:47.456Z,14.84
2018-05-25T03:45:14.438Z,14.84
2018-05-25T03:47:41.439Z,14.84
2018-05-25T03:50:08.446Z,14.84
2018-05-25T03:52:36.202Z,14.97
2018-05-25T03:55:03.963Z,14.88
2018-05-25T03:57:30.985Z,14.75
2018-05-25T04:00:16.311Z,14.58
2018-05-25T04:02:44.958Z,14.38
2018-05-25T04:05:12.454Z,14.20
2018-05-25T04:07:43.257Z,14.04
2018-05-25T04:10:10.252Z,14.19
2018-05-25T04:12:37.246Z,14.27
2018-05-25T04:15:04.234Z,14.40
2018-05-25T04:17:31.197Z,14.49
2018-05-25T04:19:58.204Z,14.53
2018-05-25T04:22:25.941Z,14.54
2018-05-25T04:24:52.911Z,14.69
2018-05-25T04:27:20.656Z,14.83
2018-05-25T04:29:47.649Z,14.90
2018-05-25T04:32:14.670Z,15.12
2018-05-25T04:34:42.399Z,15.36
2018-05-25T04:37:09.492Z,15.58
2018-05-25T04:39:37.201Z,15.47
2018-05-25T04:42:04.194Z,15.76
2018-05-25T04:44:31.940Z,16.06
2018-05-25T04:46:58.984Z,16.46
2018-05-25T04:49:26.036Z,16.34
2018-05-25T04:51:53.030Z,16.72
2018-05-25T04:54:20.101Z,16.98
2018-05-25T04:56:47.064Z,17.16
2018-05-25T04:59:14.047Z,17.44
2018-05-25T05:01:41.823Z,17.69
2018-05-25T05:04:08.830Z,17.93
2018-05-25T05:06:35.852Z,18.27
2018-05-25T05:09:03.146Z,18.31
2018-05-25T05:11:30.911Z,18.57
2018-05-25T05:13:58.643Z,18.82
2018-05-25T05:16:25.627Z,19.01
2018-05-25T05:18:53.364Z,18.60
2018-05-25T05:21:20.437Z,18.37
2018-05-25T05:23:48.209Z,18.43
2018-05-25T05:26:16.065Z,18.41
2018-05-25T05:28:43.875Z,18.79
2018-05-25T05:31:10.884Z,18.76
2018-05-25T05:33:38.641Z,18.47
2018-05-25T05:36:06.392Z,18.63
2018-05-25T05:38:33.379Z,18.85
2018-05-25T05:41:06.424Z,19.11
2018-05-25T05:43:33.451Z,19.39
2018-05-25T05:46:00.466Z,19.28
2018-05-25T05:48:27.477Z,19.26
2018-05-25T05:50:54.519Z,19.39
2018-05-25T05:53:22.313Z,19.68
2018-05-25T05:55:49.333Z,19.80
2018-05-25T05:58:16.342Z,20.34
2018-05-25T06:00:49.267Z,20.71
2018-05-25T06:03:16.324Z,21.02
2018-05-25T06:05:44.094Z,20.95
2018-05-25T06:08:11.882Z,21.23
2018-05-25T06:10:38.894Z,21.68
2018-05-25T06:13:05.974Z,22.11
2018-05-25T06:15:32.954Z,22.43
2018-05-25T06:18:05.794Z,22.60
2018-05-25T06:20:33.539Z,23.00
2018-05-25T06:23:00.564Z,23.57
2018-05-25T06:25:27.632Z,23.63
2018-05-25T06:27:55.382Z,23.37
2018-05-25T06:30:22.404Z,23.02
2018-05-25T06:32:49.488Z,23.38
2018-05-25T06:35:17.284Z,23.54
2018-05-25T06:37:44.327Z,23.13
2018-05-25T06:40:11.339Z,23.31
2018-05-25T06:42:38.339Z,23.92
2018-05-25T06:45:05.329Z,23.91
2018-05-25T06:47:32.343Z,24.26
2018-05-25T06:49:59.416Z,24.57
2018-05-25T06:52:26.394Z,24.89
2018-05-25T06:54:54.264Z,25.13
2018-05-25T06:57:21.302Z,25.40
2018-05-25T06:59:49.151Z,25.21
2018-05-25T07:02:16.116Z,25.22
2018-05-25T07:04:43.859Z,25.32
2018-05-25T07:07:10.796Z,25.11
2018-05-25T07:09:37.824Z,25.09
2018-05-25T07:12:04.842Z,25.46
2018-05-25T07:14:31.844Z,25.64
2018-05-25T07:16:58.927Z,25.43
2018-05-25T07:19:25.940Z,25.51
2018-05-25T07:21:52.911Z,26.00
2018-05-25T07:24:20.640Z,26.19
2018-05-25T07:26:47.649Z,26.17
2018-05-25T07:29:14.659Z,26.12
2018-05-25T07:31:41.631Z,26.84
2018-05-25T07:34:08.627Z,26.75
2018-05-25T07:36:35.627Z,26.81
2018-05-25T07:39:02.810Z,26.84
2018-05-25T07:41:29.844Z,26.50
2018-05-25T07:43:56.857Z,26.80
2018-05-25T07:46:24.564Z,27.25
2018-05-25T07:48:51.552Z,27.09
2018-05-25T07:51:19.299Z,27.00
2018-05-25T07:53:46.292Z,27.30
2018-05-25T07:56:13.255Z,27.35
2018-05-25T07:58:40.337Z,27.06
2018-05-25T08:01:07.533Z,27.40
2018-05-25T08:03:34.534Z,27.63
2018-05-25T08:06:01.554Z,27.50
2018-05-25T08:08:28.575Z,27.33
2018-05-25T08:10:55.677Z,27.21
2018-05-25T08:13:22.698Z,27.17
2018-05-25T08:15:49.687Z,27.80
2018-05-25T08:18:17.042Z,28.13
2018-05-25T08:20:44.784Z,28.32
2018-05-25T08:23:11.799Z,28.23
2018-05-25T08:25:44.829Z,28.35
2018-05-25T08:28:11.879Z,28.50
2018-05-25T08:30:38.911Z,27.96
2018-05-25T08:33:05.912Z,28.53
2018-05-25T08:35:39.707Z,28.18
2018-05-25T08:38:07.464Z,28.31
2018-05-25T08:40:34.486Z,28.28
2018-05-25T08:43:01.449Z,28.57
2018-05-25T08:45:28.431Z,28.90
2018-05-25T08:47:56.164Z,28.83
2018-05-25T08:50:23.157Z,29.30
2018-05-25T08:52:50.196Z,29.59
2018-05-25T08:55:17.208Z,29.79
2018-05-25T08:57:44.235Z,29.81
2018-05-25T09:00:11.251Z,30.14
2018-05-25T09:02:39.238Z,30.10
2018-05-25T09:05:06.594Z,29.26
2018-05-25T09:07:33.625Z,30.21
2018-05-25T09:10:00.674Z,30.92
2018-05-25T09:12:27.761Z,30.29
2018-05-25T09:14:54.752Z,30.28
2018-05-25T09:17:21.836Z,30.41
2018-05-25T09:19:48.833Z,30.97
2018-05-25T09:22:16.580Z,30.97
2018-05-25T09:24:44.302Z,30.94
2018-05-25T09:27:11.295Z,31.12
2018-05-25T09:29:38.291Z,30.99
2018-05-25T09:32:05.286Z,30.69
2018-05-25T09:34:32.309Z,31.04
2018-05-25T09:36:59.291Z,30.90
2018-05-25T09:39:26.282Z,31.29
2018-05-25T09:41:53.273Z,31.07
2018-05-25T09:44:20.281Z,30.91
2018-05-25T09:46:47.316Z,30.76
2018-05-25T09:49:14.328Z,31.44
2018-05-25T09:51:41.324Z,31.57
2018-05-25T09:54:08.313Z,31.46
2018-05-25T09:56:36.274Z,32.02
2018-05-25T09:59:03.286Z,31.99
2018-05-25T10:01:30.311Z,31.95
2018-05-25T10:03:57.323Z,32.13
2018-05-25T10:06:25.070Z,31.84
2018-05-25T10:08:52.076Z,31.97
2018-05-25T10:11:19.044Z,31.72
2018-05-25T10:13:46.113Z,31.98
2018-05-25T10:16:13.094Z,32.16
2018-05-25T10:18:40.131Z,32.56
2018-05-25T10:21:07.213Z,32.87
2018-05-25T10:23:34.238Z,33.12
2018-05-25T10:26:01.248Z,33.51
2018-05-25T10:28:28.263Z,33.55
2018-05-25T10:30:55.344Z,33.45
2018-05-25T10:33:22.324Z,33.18
2018-05-25T10:35:49.311Z,33.00
2018-05-25T10:38:16.288Z,32.95
2018-05-25T10:40:43.313Z,33.57
2018-05-25T10:43:10.311Z,33.92
2018-05-25T10:45:37.371Z,33.71
2018-05-25T10:48:04.464Z,33.71
2018-05-25T10:50:31.471Z,34.20
2018-05-25T10:52:58.503Z,34.35
2018-05-25T10:55:27.903Z,34.90
2018-05-25T10:57:54.896Z,34.41
2018-05-25T11:00:21.947Z,34.86
2018-05-25T11:02:48.947Z,34.07
2018-05-25T11:05:15.890Z,34.02
2018-05-25T11:07:42.931Z,34.38
2018-05-25T11:10:09.926Z,34.45
2018-05-25T11:12:36.967Z,34.65
2018-05-25T11:15:07.866Z,34.99
2018-05-25T11:17:34.890Z,34.53
2018-05-25T11:20:01.931Z,34.29
2018-05-25T11:22:28.934Z,33.73
2018-05-25T11:24:55.911Z,33.60
2018-05-25T11:27:22.903Z,33.64
2018-05-25T11:29:49.889Z,33.96
2018-05-25T11:32:16.914Z,34.32
2018-05-25T11:34:43.932Z,34.65
2018-05-25T11:37:11.651Z,34.87
2018-05-25T11:39:38.651Z,34.45
2018-05-25T11:42:05.677Z,34.82
2018-05-25T11:44:33.521Z,35.02
2018-05-25T11:47:00.564Z,34.74
2018-05-25T11:49:27.571Z,34.28
2018-05-25T11:51:54.577Z,34.46
2018-05-25T11:54:21.624Z,34.86
2018-05-25T11:56:49.349Z,34.58
2018-05-25T11:59:16.311Z,35.16
2018-05-25T12:01:43.360Z,35.50
2018-05-25T12:04:18.764Z,35.81
2018-05-25T12:06:45.880Z,36.03
2018-05-25T12:09:12.839Z,35.72
2018-05-25T12:11:40.604Z,35.36
2018-05-25T12:14:08.325Z,35.43
2018-05-25T12:16:35.342Z,35.59
2018-05-25T12:19:02.362Z,35.08
2018-05-25T12:21:30.127Z,34.70
2018-05-25T12:24:00.262Z,34.91
2018-05-25T12:26:33.219Z,35.48
2018-05-25T12:29:01.002Z,35.40
2018-05-25T12:31:28.059Z,35.22
2018-05-25T12:33:55.072Z,35.69
2018-05-25T12:36:22.087Z,35.86
2018-05-25T12:38:49.105Z,35.89
2018-05-25T12:41:16.151Z,35.66
2018-05-25T12:43:43.157Z,35.75
2018-05-25T12:46:10.149Z,36.28
2018-05-25T12:48:37.187Z,36.79
2018-05-25T12:51:04.324Z,36.39
2018-05-25T12:53:32.134Z,36.20
2018-05-25T12:56:05.159Z,35.94
2018-05-25T12:58:32.186Z,36.14
2018-05-25T13:00:59.225Z,36.27
2018-05-25T13:03:29.044Z,36.17
2018-05-25T13:06:01.956Z,36.41
2018-05-25T13:08:29.709Z,37.01
2018-05-25T13:10:56.747Z,36.39
2018-05-25T13:13:23.839Z,36.08
2018-05-25T13:15:50.875Z,35.95
2018-05-25T13:18:18.639Z,36.58
2018-05-25T13:20:46.426Z,37.10
2018-05-25T13:23:13.508Z,36.57
2018-05-25T13:25:40.504Z,36.37
2018-05-25T13:28:09.161Z,36.13
2018-05-25T13:30:36.244Z,36.20
2018-05-25T13:33:03.376Z,36.87
2018-05-25T13:35:31.111Z,36.48
2018-05-25T13:37:58.112Z,36.26
2018-05-25T13:40:25.123Z,36.25
2018-05-25T13:42:52.091Z,36.16
2018-05-25T13:45:19.866Z,36.32
2018-05-25T13:47:46.967Z,36.35
2018-05-25T13:50:14.001Z,36.74
2018-05-25T13:52:40.976Z,36.51
2018-05-25T13:55:08.754Z,36.56
2018-05-25T13:57:36.509Z,36.85
2018-05-25T14:00:03.754Z,37.24
2018-05-25T14:02:30.794Z,37.14
2018-05-25T14:04:57.806Z,36.93
2018-05-25T14:07:24.862Z,36.49
2018-05-25T14:09:51.843Z,36.33
2018-05-25T14:12:18.886Z,36.89
2018-05-25T14:14:45.902Z,36.78
2018-05-25T14:17:12.898Z,36.55
2018-05-25T14:19:40.606Z,36.46
2018-05-25T14:22:07.629Z,36.19
2018-05-25T14:24:34.632Z,36.58
2018-05-25T14:27:01.619Z,36.86
2018-05-25T14:29:28.660Z,36.60
2018-05-25T14:31:55.677Z,36.87
2018-05-25T14:34:22.695Z,36.54
2018-05-25T14:36:49.705Z,36.58
2018-05-25T14:39:16.691Z,36.67
2018-05-25T14:41:43.684Z,37.06
2018-05-25T14:44:10.737Z,36.99
2018-05-25T14:46:37.779Z,36.69
2018-05-25T14:49:05.594Z,36.62
2018-05-25T14:51:32.659Z,36.50
2018-05-25T14:53:59.747Z,36.64
2018-05-25T14:56:27.885Z,36.50
2018-05-25T14:58:54.885Z,35.99
2018-05-25T15:01:21.880Z,36.55
2018-05-25T15:03:48.892Z,37.10
2018-05-25T15:06:16.074Z,36.69
2018-05-25T15:08:44.073Z,36.20
2018-05-25T15:11:11.201Z,35.48
2018-05-25T15:13:44.197Z,35.58
2018-05-25T15:16:11.975Z,35.99
2018-05-25T15:18:39.735Z,35.97
2018-05-25T15:21:07.506Z,35.78
2018-05-25T15:23:35.264Z,35.82
2018-05-25T15:26:02.293Z,36.12
2018-05-25T15:28:29.276Z,36.13
2018-05-25T15:30:57.978Z,36.51
2018-05-25T15:33:24.979Z,36.27
2018-05-25T15:35:58.001Z,35.67
2018-05-25T15:38:25.037Z,35.45
2018-05-25T15:40:52.813Z,35.79
2018-05-25T15:43:19.808Z,35.93
2018-05-25T15:45:46.892Z,36.06
2018-05-25T15:48:14.641Z,36.09
2018-05-25T15:50:41.637Z,35.86
2018-05-25T15:53:08.619Z,35.97
2018-05-25T15:55:35.619Z,36.13
2018-05-25T15:58:02.617Z,35.97
2018-05-25T16:00:29.649Z,35.29
2018-05-25T16:02:56.692Z,35.50
2018-05-25T16:05:23.717Z,35.65
2018-05-25T16:07:50.782Z,35.38
2018-05-25T16:10:17.774Z,35.35
2018-05-25T16:12:51.419Z,35.24
2018-05-25T16:15:19.177Z,34.92
2018-05-25T16:17:46.197Z,34.90
2018-05-25T16:20:13.729Z,34.57
2018-05-25T16:22:40.737Z,34.77
2018-05-25T16:25:07.732Z,34.72
2018-05-25T16:27:34.751Z,34.58
2018-05-25T16:30:01.784Z,34.27
2018-05-25T16:32:28.811Z,33.91
2018-05-25T16:34:55.859Z,33.83
2018-05-25T16:37:28.765Z,33.89
2018-05-25T16:39:55.754Z,33.65
2018-05-25T16:42:28.808Z,33.46
2018-05-25T16:44:55.829Z,33.33
2018-05-25T16:47:22.836Z,32.89
2018-05-25T16:49:49.849Z,32.15
2018-05-25T16:52:16.858Z,30.92
2018-05-25T16:54:43.880Z,30.10
2018-05-25T16:57:10.899Z,29.30
2018-05-25T16:59:38.009Z,28.70
2018-05-25T17:02:05.037Z,28.29
2018-05-25T17:04:32.796Z,27.94
2018-05-25T17:06:59.777Z,27.60
2018-05-25T17:09:27.521Z,27.36
2018-05-25T17:11:55.291Z,27.15
2018-05-25T17:14:22.319Z,27.01
2018-05-25T17:16:50.059Z,26.83
2018-05-25T17:19:17.956Z,26.68
2018-05-25T17:21:45.724Z,26.74
2018-05-25T17:24:13.536Z,26.93
2018-05-25T17:26:46.626Z,26.77
2018-05-25T17:29:13.769Z,26.58
2018-05-25T17:31:40.929Z,26.60
2018-05-25T17:34:07.957Z,26.55
2018-05-25T17:36:35.071Z,26.40
2018-05-25T17:39:08.788Z,26.28
2018-05-25T17:41:35.796Z,26.07
2018-05-25T17:44:02.836Z,25.91
2018-05-25T17:46:29.837Z,25.80
2018-05-25T17:48:56.806Z,25.82
2018-05-25T17:51:23.881Z,25.89
2018-05-25T17:53:50.904Z,25.77
2018-05-25T17:56:17.970Z,25.78
2018-05-25T17:58:45.007Z,25.56
2018-05-25T18:01:12.034Z,25.64
2018-05-25T18:03:39.127Z,25.43
2018-05-25T18:06:06.147Z,25.32
2018-05-25T18:08:34.885Z,25.19
2018-05-25T18:11:02.729Z,25.03
2018-05-25T18:13:30.741Z,24.79
2018-05-25T18:15:57.799Z,24.98
2018-05-25T18:18:30.911Z,25.37
2018-05-25T18:20:57.990Z,25.40
2018-05-25T18:23:25.081Z,25.35
2018-05-25T18:25:52.137Z,25.29
2018-05-25T18:28:20.117Z,25.22
2018-05-25T18:30:47.171Z,25.18
2018-05-25T18:33:14.175Z,25.09
2018-05-25T18:35:41.237Z,25.03
2018-05-25T18:38:08.358Z,24.97
2018-05-25T18:40:42.167Z,24.85
2018-05-25T18:43:09.288Z,24.84
2018-05-25T18:45:37.233Z,24.83
2018-05-25T18:48:06.537Z,24.73
2018-05-25T18:50:33.571Z,24.43
2018-05-25T18:53:00.560Z,24.19
2018-05-25T18:55:27.583Z,24.24
2018-05-25T18:57:54.657Z,24.15
2018-05-25T19:00:21.775Z,23.94
2018-05-25T19:02:54.768Z,23.78
2018-05-25T19:05:22.395Z,23.64
2018-05-25T19:07:52.565Z,23.53
2018-05-25T19:10:19.591Z,23.44
2018-05-25T19:12:46.599Z,23.32
2018-05-25T19:15:14.404Z,23.19
2018-05-25T19:17:42.487Z,23.04
2018-05-25T19:20:09.687Z,22.87
2018-05-25T19:22:43.450Z,22.89
2018-05-25T19:25:10.539Z,22.83
2018-05-25T19:27:38.564Z,22.79
2018-05-25T19:30:05.622Z,22.94
2018-05-25T19:32:32.602Z,22.85
2018-05-25T19:34:59.699Z,22.83
2018-05-25T19:37:27.117Z,22.95
2018-05-25T19:39:54.140Z,22.84
2018-05-25T19:42:27.947Z,22.73
2018-05-25T19:44:55.821Z,22.59
2018-05-25T19:47:23.597Z,22.49
2018-05-25T19:49:50.605Z,22.42
2018-05-25T19:52:17.644Z,22.31
2018-05-25T19:54:44.659Z,22.22
2018-05-25T19:57:11.688Z,22.11
2018-05-25T19:59:44.736Z,22.22
2018-05-25T20:02:11.792Z,22.37
2018-05-25T20:04:38.951Z,22.29
2018-05-25T20:07:05.967Z,22.19
2018-05-25T20:09:32.970Z,22.22
2018-05-25T20:12:06.032Z,22.21
2018-05-25T20:14:33.041Z,22.14
2018-05-25T20:17:00.070Z,22.17
2018-05-25T20:19:27.082Z,22.10
2018-05-25T20:22:06.904Z,22.01
2018-05-25T20:24:33.949Z,21.94
2018-05-25T20:27:06.939Z,21.79
2018-05-25T20:29:33.915Z,21.58
2018-05-25T20:32:01.651Z,21.39
2018-05-25T20:34:28.690Z,21.25
2018-05-25T20:36:55.727Z,21.12
2018-05-25T20:39:22.780Z,21.15
2018-05-25T20:41:49.827Z,21.04
2018-05-25T20:44:16.876Z,20.98
2018-05-25T20:46:50.779Z,20.98
2018-05-25T20:49:17.819Z,20.93
2018-05-25T20:51:44.832Z,20.92
2018-05-25T20:54:12.574Z,20.90
2018-05-25T20:56:41.255Z,20.92
2018-05-25T20:59:08.296Z,20.93
2018-05-25T21:01:35.299Z,20.84
2018-05-25T21:04:02.353Z,20.81
2018-05-25T21:06:29.362Z,20.78
2018-05-25T21:08:56.359Z,20.69
2018-05-25T21:11:23.371Z,20.71
2018-05-25T21:13:50.495Z,21.09
2018-05-25T21:16:17.494Z,21.02
2018-05-25T21:18:44.544Z,20.97
2018-05-25T21:21:17.510Z,20.93
2018-05-25T21:23:44.537Z,20.96
2018-05-25T21:26:11.594Z,20.85
2018-05-25T21:28:38.603Z,20.59
2018-05-25T21:31:05.596Z,20.47
2018-05-25T21:33:32.607Z,20.28
2018-05-25T21:36:00.401Z,20.31
2018-05-25T21:38:33.452Z,20.24
2018-05-25T21:41:00.511Z,20.33
2018-05-25T21:43:27.521Z,20.32
2018-05-25T21:45:54.529Z,20.25
2018-05-25T21:48:21.516Z,20.15
2018-05-25T21:50:48.559Z,20.09
2018-05-25T21:53:15.551Z,20.07
2018-05-25T21:55:42.586Z,20.05
2018-05-25T21:58:09.622Z,20.01
2018-05-25T22:00:48.852Z,19.99
2018-05-25T22:03:15.877Z,20.00
2018-05-25T22:05:42.905Z,19.98
2018-05-25T22:08:15.970Z,19.93
2018-05-25T22:10:43.015Z,19.89
2018-05-25T22:13:10.770Z,19.85
2018-05-25T22:15:38.499Z,19.86
2018-05-25T22:18:05.547Z,19.81
2018-05-25T22:20:32.567Z,19.73
2018-05-25T22:22:59.580Z,19.73
2018-05-25T22:25:33.156Z,19.67
2018-05-25T22:28:00.173Z,19.64
2018-05-25T22:30:27.187Z,19.63
2018-05-25T22:32:54.198Z,19.62
2018-05-25T22:35:21.312Z,19.49
2018-05-25T22:37:48.298Z,19.50
2018-05-25T22:40:15.274Z,19.71
2018-05-25T22:43:00.295Z,19.67
2018-05-25T22:45:45.972Z,19.47
2018-05-25T22:48:31.281Z,19.43
2018-05-25T22:51:16.424Z,19.46
2018-05-25T22:53:48.831Z,19.40
2018-05-25T22:56:22.689Z,19.51
2018-05-25T22:58:49.694Z,19.44
2018-05-25T23:01:16.729Z,19.36
2018-05-25T23:03:43.759Z,19.27
2018-05-25T23:06:11.524Z,19.17
2018-05-25T23:08:38.491Z,19.05
2018-05-25T23:11:06.252Z,18.98
2018-05-25T23:13:33.246Z,19.04
2018-05-25T23:16:00.230Z,19.04
2018-05-25T23:18:27.273Z,18.98
2018-05-25T23:20:54.343Z,18.98
2018-05-25T23:23:21.396Z,18.93
2018-05-25T23:25:49.156Z,18.89
2018-05-25T23:28:16.925Z,18.86
2018-05-25T23:30:44.686Z,18.87
2018-05-25T23:33:12.466Z,18.84
2018-05-25T23:35:39.446Z,18.77
2018-05-25T23:38:06.426Z,18.77
2018-05-25T23:40:33.431Z,18.70
2018-05-25T23:43:00.500Z,18.58
2018-05-25T23:45:27.509Z,18.51
2018-05-25T23:47:54.457Z,18.47
2018-05-25T23:50:21.409Z,18.45
2018-05-25T23:52:48.382Z,18.54
2018-05-25T23:55:15.429Z,18.82
2018-05-25T23:57:42.407Z,18.72
